Time;durP1;ratioP1;P1;durP2;ratioP2;P2;SDS_P1;SDS_P2;PMS_P1;PMS_P2;Temp;Humidity;BMP_temperature;BMP_pressure;BME280_temperature;BME280_humidity;BME280_pressure;Samples;Min_cycle;Max_cycle;Signal;HPM_P1;HPM_P2
2023/09/29 00:01:26;;;;;;;14.33;5.60;;;;;;;;;;5000986;28;20183;-76
2023/09/29 00:03:52;;;;;;;14.03;5.87;;;;;;;;;;5018428;28;20195;-75
2023/09/29 00:06:18;;;;;;;14.77;6.20;;;;;;;;;;5000520;28;20188;-77
2023/09/29 00:08:45;;;;;;;16.00;6.73;;;;;;;;;;5001761;28;20189;-77
2023/09/29 00:11:14;;;;;;;17.80;6.30;;;;;;;;;;5006355;22;20229;-77
2023/09/29 00:13:40;;;;;;;16.77;5.97;;;;;;;;;;5010263;28;20191;-77
2023/09/29 00:16:06;;;;;;;14.83;5.93;;;;;;;;;;4993106;28;20268;-79
2023/09/29 00:18:33;;;;;;;13.43;5.40;;;;;;;;;;4998039;28;20193;-77
2023/09/29 00:20:59;;;;;;;19.17;5.47;;;;;;;;;;4982433;28;20228;-76
2023/09/29 00:23:25;;;;;;;15.00;6.10;;;;;;;;;;5018548;28;20212;-76
2023/09/29 00:25:51;;;;;;;15.27;6.00;;;;;;;;;;4982146;28;20215;-77
2023/09/29 00:28:17;;;;;;;16.70;5.80;;;;;;;;;;4982193;28;20192;-77
2023/09/29 00:30:43;;;;;;;12.57;5.23;;;;;;;;;;4981932;28;20224;-77
2023/09/29 00:33:09;;;;;;;11.07;5.50;;;;;;;;;;5000408;28;20196;-75
2023/09/29 00:35:37;;;;;;;16.03;5.50;;;;;;;;;;4999428;28;20331;-76
2023/09/29 00:38:03;;;;;;;13.93;5.40;;;;;;;;;;5000092;28;20196;-76
2023/09/29 00:40:29;;;;;;;13.53;4.97;;;;;;;;;;4996955;28;20200;-75
2023/09/29 00:42:57;;;;;;;14.50;5.27;;;;;;;;;;4998215;28;20212;-76
2023/09/29 00:45:26;;;;;;;14.00;5.30;;;;;;;;;;4983340;28;20197;-75
2023/09/29 00:47:52;;;;;;;16.30;5.50;;;;;;;;;;5005111;28;20239;-76
2023/09/29 00:50:19;;;;;;;12.97;5.20;;;;;;;;;;4997430;28;20240;-76
2023/09/29 00:52:46;;;;;;;13.60;5.83;;;;;;;;;;4996908;28;20181;-75
2023/09/29 00:55:16;;;;;;;11.70;6.13;;;;;;;;;;4999455;28;20239;-76
2023/09/29 00:57:42;;;;;;;15.10;5.93;;;;;;;;;;4998125;28;20173;-76
2023/09/29 01:00:21;;;;;;;13.73;5.33;;;;;;;;;;5015429;28;20272;-76
2023/09/29 01:02:47;;;;;;;12.07;5.33;;;;;;;;;;4997345;28;20643;-78
2023/09/29 01:05:13;;;;;;;16.33;6.30;;;;;;;;;;4980738;28;20193;-78
2023/09/29 01:07:41;;;;;;;16.77;6.97;;;;;;;;;;4984531;28;20196;-76
2023/09/29 01:10:08;;;;;;;14.73;7.70;;;;;;;;;;4982391;28;20217;-76
2023/09/29 01:12:35;;;;;;;18.27;8.40;;;;;;;;;;4997578;28;20225;-77
2023/09/29 01:15:03;;;;;;;17.13;8.63;;;;;;;;;;5020219;28;20197;-77
2023/09/29 01:17:29;;;;;;;19.50;9.27;;;;;;;;;;4995752;28;20288;-77
2023/09/29 01:19:55;;;;;;;19.13;9.20;;;;;;;;;;5015161;28;20170;-77
2023/09/29 01:22:21;;;;;;;18.67;9.30;;;;;;;;;;5014283;28;20196;-78
2023/09/29 01:24:47;;;;;;;18.93;9.40;;;;;;;;;;4981596;28;20197;-78
2023/09/29 01:27:13;;;;;;;20.70;9.63;;;;;;;;;;4981188;28;20192;-77
2023/09/29 01:29:44;;;;;;;18.40;9.83;;;;;;;;;;5014493;28;20224;-76
2023/09/29 01:32:14;;;;;;;18.73;9.70;;;;;;;;;;4985588;28;20279;-77
2023/09/29 01:34:40;;;;;;;18.50;9.43;;;;;;;;;;4996807;28;20242;-76
2023/09/29 01:37:07;;;;;;;18.40;10.17;;;;;;;;;;4996647;28;20213;-76
2023/09/29 01:39:34;;;;;;;23.17;10.73;;;;;;;;;;4997369;28;20186;-76
2023/09/29 01:42:00;;;;;;;18.27;9.93;;;;;;;;;;4970122;28;20200;-76
2023/09/29 01:44:26;;;;;;;18.37;9.87;;;;;;;;;;4999267;28;20189;-76
2023/09/29 01:46:53;;;;;;;18.47;10.10;;;;;;;;;;5013622;28;20181;-76
2023/09/29 01:49:20;;;;;;;18.27;9.63;;;;;;;;;;4992158;28;20299;-76
2023/09/29 01:51:46;;;;;;;17.80;9.60;;;;;;;;;;4981029;28;20188;-76
2023/09/29 01:54:12;;;;;;;18.77;9.90;;;;;;;;;;4997040;28;20185;-76
2023/09/29 01:56:38;;;;;;;19.67;10.03;;;;;;;;;;4997048;28;20208;-75
2023/09/29 01:59:04;;;;;;;18.87;9.67;;;;;;;;;;4984583;28;20242;-76
2023/09/29 02:01:34;;;;;;;19.30;9.73;;;;;;;;;;4980828;28;20189;-76
2023/09/29 02:04:00;;;;;;;14.73;9.70;;;;;;;;;;4999495;28;20193;-76
2023/09/29 02:06:27;;;;;;;16.03;9.27;;;;;;;;;;4980725;28;20189;-76
2023/09/29 02:08:53;;;;;;;18.63;9.60;;;;;;;;;;4981532;28;20220;-76
2023/09/29 02:11:19;;;;;;;17.77;9.30;;;;;;;;;;5017857;28;20298;-76
2023/09/29 02:13:45;;;;;;;17.37;9.30;;;;;;;;;;4980747;28;20193;-76
2023/09/29 02:16:15;;;;;;;21.50;9.60;;;;;;;;;;4984054;28;20185;-76
2023/09/29 02:18:41;;;;;;;15.50;9.33;;;;;;;;;;4961641;28;20196;-75
2023/09/29 02:21:08;;;;;;;19.73;9.43;;;;;;;;;;5009826;28;20189;-76
2023/09/29 02:23:35;;;;;;;17.33;10.10;;;;;;;;;;4997410;28;20193;-76
2023/09/29 02:26:01;;;;;;;19.33;9.20;;;;;;;;;;4981004;28;20192;-76
2023/09/29 02:28:32;;;;;;;15.57;9.17;;;;;;;;;;5001369;28;20195;-76
2023/09/29 02:30:58;;;;;;;12.87;9.43;;;;;;;;;;4990419;28;20213;-76
2023/09/29 02:33:28;;;;;;;14.10;9.00;;;;;;;;;;4984703;28;20189;-76
2023/09/29 02:35:54;;;;;;;16.83;9.07;;;;;;;;;;4988496;28;20204;-78
2023/09/29 02:38:20;;;;;;;15.27;8.67;;;;;;;;;;5017471;28;20239;-78
2023/09/29 02:40:47;;;;;;;13.53;8.63;;;;;;;;;;4984710;28;20191;-78
2023/09/29 02:43:13;;;;;;;19.10;9.17;;;;;;;;;;4983955;28;20219;-78
2023/09/29 02:45:43;;;;;;;12.60;8.63;;;;;;;;;;5019119;28;20255;-78
2023/09/29 02:48:09;;;;;;;16.47;8.80;;;;;;;;;;5011296;28;20189;-78
2023/09/29 02:50:36;;;;;;;15.20;8.50;;;;;;;;;;5017366;28;20216;-75
2023/09/29 02:53:05;;;;;;;13.00;8.47;;;;;;;;;;4986342;28;20330;-78
2023/09/29 02:55:33;;;;;;;14.77;9.07;;;;;;;;;;4999865;28;20186;-78
2023/09/29 02:57:59;;;;;;;12.07;8.13;;;;;;;;;;5017173;28;20245;-78
2023/09/29 03:00:27;;;;;;;15.80;8.40;;;;;;;;;;5001092;28;20267;-78
2023/09/29 03:02:53;;;;;;;14.80;8.30;;;;;;;;;;5002735;28;20189;-79
2023/09/29 03:05:20;;;;;;;13.03;7.77;;;;;;;;;;4984993;28;20273;-78
2023/09/29 03:07:47;;;;;;;13.87;7.97;;;;;;;;;;5002248;28;20173;-76
2023/09/29 03:10:14;;;;;;;10.67;7.70;;;;;;;;;;5000130;28;20212;-76
2023/09/29 03:12:40;;;;;;;13.50;7.70;;;;;;;;;;5003747;28;20302;-76
2023/09/29 03:15:08;;;;;;;10.53;7.57;;;;;;;;;;4983405;28;20220;-76
2023/09/29 03:17:34;;;;;;;11.50;7.73;;;;;;;;;;5016587;28;20189;-76
2023/09/29 03:20:00;;;;;;;11.00;8.00;;;;;;;;;;5000296;28;20217;-79
2023/09/29 03:22:27;;;;;;;8.87;7.57;;;;;;;;;;4983888;28;20178;-76
2023/09/29 03:24:53;;;;;;;12.50;7.63;;;;;;;;;;4983756;28;20272;-78
2023/09/29 03:27:19;;;;;;;9.17;7.33;;;;;;;;;;5000715;28;20182;-76
2023/09/29 03:29:45;;;;;;;11.93;7.77;;;;;;;;;;5021261;28;20219;-76
2023/09/29 03:32:11;;;;;;;12.87;7.70;;;;;;;;;;4984485;28;20216;-76
2023/09/29 03:34:37;;;;;;;10.93;7.73;;;;;;;;;;4983087;28;20305;-76
2023/09/29 03:37:03;;;;;;;11.57;7.13;;;;;;;;;;4984078;28;20205;-76
2023/09/29 03:39:29;;;;;;;13.57;7.30;;;;;;;;;;4986064;28;20231;-76
2023/09/29 03:41:55;;;;;;;11.23;6.73;;;;;;;;;;4983500;28;20205;-77
2023/09/29 03:44:24;;;;;;;9.77;6.50;;;;;;;;;;4985130;28;20194;-76
2023/09/29 03:46:50;;;;;;;8.33;6.50;;;;;;;;;;5017056;28;20193;-77
2023/09/29 03:49:19;;;;;;;13.77;7.00;;;;;;;;;;4983139;28;20263;-77
2023/09/29 03:51:45;;;;;;;10.23;6.37;;;;;;;;;;4999947;28;20177;-77
2023/09/29 03:54:11;;;;;;;10.03;6.30;;;;;;;;;;4999537;28;20189;-76
2023/09/29 03:56:37;;;;;;;11.53;6.23;;;;;;;;;;4999928;28;20195;-77
2023/09/29 03:59:03;;;;;;;10.10;6.10;;;;;;;;;;5000028;28;20240;-78
2023/09/29 04:01:29;;;;;;;9.37;5.90;;;;;;;;;;4998656;28;20185;-78
2023/09/29 04:03:55;;;;;;;8.10;6.00;;;;;;;;;;4985495;28;20177;-78
2023/09/29 04:06:21;;;;;;;10.87;6.47;;;;;;;;;;4999341;28;20169;-79
2023/09/29 04:08:48;;;;;;;8.03;5.67;;;;;;;;;;5000626;28;20185;-78
2023/09/29 04:11:14;;;;;;;6.93;5.20;;;;;;;;;;5003185;28;20236;-78
2023/09/29 04:13:43;;;;;;;9.43;5.60;;;;;;;;;;4999703;28;20177;-78
2023/09/29 04:16:09;;;;;;;7.17;5.70;;;;;;;;;;4999888;28;20320;-78
2023/09/29 04:18:35;;;;;;;11.43;5.70;;;;;;;;;;4983149;28;20259;-78
2023/09/29 04:21:01;;;;;;;9.23;5.60;;;;;;;;;;4999362;28;20204;-79
2023/09/29 04:23:28;;;;;;;7.53;5.70;;;;;;;;;;4999560;28;20189;-79
2023/09/29 04:25:54;;;;;;;7.87;5.40;;;;;;;;;;5016785;28;20231;-79
2023/09/29 04:28:21;;;;;;;10.20;5.37;;;;;;;;;;4999245;28;20181;-78
2023/09/29 04:30:47;;;;;;;7.77;4.73;;;;;;;;;;4998712;28;20223;-79
2023/09/29 04:33:13;;;;;;;9.60;5.07;;;;;;;;;;4998888;28;20268;-80
2023/09/29 04:35:39;;;;;;;8.03;5.20;;;;;;;;;;4982156;28;20191;-80
2023/09/29 04:38:05;;;;;;;8.13;5.13;;;;;;;;;;4999013;28;20264;-80
2023/09/29 04:40:31;;;;;;;8.87;5.10;;;;;;;;;;4981781;28;20190;-79
2023/09/29 04:42:57;;;;;;;8.70;5.70;;;;;;;;;;4982211;28;20196;-79
2023/09/29 04:45:23;;;;;;;8.27;5.30;;;;;;;;;;4981914;28;20211;-79
2023/09/29 04:47:52;;;;;;;8.87;5.13;;;;;;;;;;4982317;28;20240;-76
2023/09/29 04:50:19;;;;;;;9.23;5.33;;;;;;;;;;5012485;28;20296;-76
2023/09/29 04:52:45;;;;;;;6.17;4.83;;;;;;;;;;4994834;28;20198;-77
2023/09/29 04:55:11;;;;;;;8.77;4.80;;;;;;;;;;5015143;28;20424;-77
2023/09/29 04:57:37;;;;;;;7.23;5.17;;;;;;;;;;4998615;28;20188;-76
2023/09/29 05:00:03;;;;;;;8.60;5.47;;;;;;;;;;4982207;28;20177;-76
2023/09/29 05:02:38;;;;;;;9.07;5.37;;;;;;;;;;5015317;28;20177;-75
2023/09/29 05:05:05;;;;;;;6.93;5.40;;;;;;;;;;4981485;28;20184;-76
2023/09/29 05:07:31;;;;;;;8.37;4.80;;;;;;;;;;4998010;28;20177;-76
2023/09/29 05:09:57;;;;;;;6.97;4.90;;;;;;;;;;4979316;28;20212;-77
2023/09/29 05:12:23;;;;;;;9.90;5.43;;;;;;;;;;4995511;28;20253;-76
2023/09/29 05:14:49;;;;;;;7.60;5.30;;;;;;;;;;4997304;28;20193;-76
2023/09/29 05:17:15;;;;;;;7.73;5.23;;;;;;;;;;4997357;28;20180;-77
2023/09/29 05:19:41;;;;;;;9.87;4.97;;;;;;;;;;5014513;28;20181;-76
2023/09/29 05:22:07;;;;;;;9.97;5.30;;;;;;;;;;4981247;28;20184;-78
2023/09/29 05:24:33;;;;;;;7.53;4.90;;;;;;;;;;4997714;28;20271;-79
2023/09/29 05:26:59;;;;;;;8.30;5.40;;;;;;;;;;5006509;28;20239;-78
2023/09/29 05:29:25;;;;;;;7.10;5.00;;;;;;;;;;4997870;28;20208;-78
2023/09/29 05:31:52;;;;;;;5.97;4.67;;;;;;;;;;4981491;28;20180;-78
2023/09/29 05:34:18;;;;;;;6.90;5.37;;;;;;;;;;4998954;28;20244;-79
2023/09/29 05:36:45;;;;;;;9.50;4.63;;;;;;;;;;4997423;28;20197;-79
2023/09/29 05:39:12;;;;;;;6.10;4.60;;;;;;;;;;5009259;28;20189;-80
2023/09/29 05:41:38;;;;;;;7.63;4.63;;;;;;;;;;4990451;28;20196;-79
2023/09/29 05:44:04;;;;;;;8.33;4.30;;;;;;;;;;4997654;28;20185;-79
2023/09/29 05:46:30;;;;;;;5.93;4.97;;;;;;;;;;5014411;28;20176;-78
2023/09/29 05:48:56;;;;;;;6.70;4.50;;;;;;;;;;4995884;28;20260;-78
2023/09/29 05:51:22;;;;;;;5.53;4.00;;;;;;;;;;4978307;28;20253;-78
2023/09/29 05:53:48;;;;;;;5.83;4.30;;;;;;;;;;4962229;28;20202;-78
2023/09/29 05:56:15;;;;;;;8.40;5.10;;;;;;;;;;4962139;28;20178;-76
2023/09/29 05:58:41;;;;;;;6.97;4.70;;;;;;;;;;4977757;28;20178;-76
2023/09/29 06:01:11;;;;;;;8.37;4.50;;;;;;;;;;4978519;28;20185;-76
2023/09/29 06:03:38;;;;;;;7.80;4.40;;;;;;;;;;5003556;28;20216;-78
2023/09/29 06:06:04;;;;;;;8.80;4.20;;;;;;;;;;4997481;28;20254;-78
2023/09/29 06:08:31;;;;;;;8.00;3.83;;;;;;;;;;4997619;28;20220;-78
2023/09/29 06:10:57;;;;;;;6.77;4.10;;;;;;;;;;5013946;28;20280;-76
2023/09/29 06:13:23;;;;;;;6.87;3.90;;;;;;;;;;4997221;28;20225;-75
2023/09/29 06:15:49;;;;;;;5.67;3.93;;;;;;;;;;4997264;28;20204;-76
2023/09/29 06:18:15;;;;;;;6.03;4.03;;;;;;;;;;4997044;28;20193;-76
2023/09/29 06:20:42;;;;;;;6.60;4.13;;;;;;;;;;5014759;28;20178;-75
2023/09/29 06:23:08;;;;;;;6.10;4.10;;;;;;;;;;5014068;28;20197;-76
2023/09/29 06:25:34;;;;;;;5.30;3.73;;;;;;;;;;4997309;28;20185;-76
2023/09/29 06:28:00;;;;;;;6.40;4.10;;;;;;;;;;5013551;28;20192;-76
2023/09/29 06:30:26;;;;;;;8.13;3.90;;;;;;;;;;4997657;28;20248;-76
2023/09/29 06:32:52;;;;;;;8.27;4.10;;;;;;;;;;4997017;28;20185;-76
2023/09/29 06:35:18;;;;;;;6.97;3.90;;;;;;;;;;4997049;28;20181;-76
2023/09/29 06:37:44;;;;;;;6.80;4.10;;;;;;;;;;4997400;28;20188;-76
2023/09/29 06:40:10;;;;;;;6.53;4.00;;;;;;;;;;4997014;28;20212;-76
2023/09/29 06:42:39;;;;;;;8.00;4.10;;;;;;;;;;4996907;28;20263;-76
2023/09/29 06:45:07;;;;;;;4.80;3.90;;;;;;;;;;4997135;28;20194;-75
2023/09/29 06:47:34;;;;;;;5.77;4.07;;;;;;;;;;4996839;28;20193;-76
2023/09/29 06:50:00;;;;;;;6.97;4.40;;;;;;;;;;4996862;28;20307;-78
2023/09/29 06:52:26;;;;;;;8.43;3.80;;;;;;;;;;4997242;28;20177;-78
2023/09/29 06:54:52;;;;;;;4.30;3.90;;;;;;;;;;4996964;28;20276;-79
2023/09/29 06:57:18;;;;;;;8.73;4.20;;;;;;;;;;5013464;28;20178;-78
2023/09/29 06:59:44;;;;;;;7.40;4.20;;;;;;;;;;4994887;28;20185;-79
2023/09/29 07:02:10;;;;;;;6.73;4.03;;;;;;;;;;4989000;28;20193;-76
2023/09/29 07:04:37;;;;;;;6.07;3.90;;;;;;;;;;4997119;28;20280;-76
2023/09/29 07:07:03;;;;;;;5.70;3.73;;;;;;;;;;4980152;28;20192;-76
2023/09/29 07:09:29;;;;;;;9.23;4.10;;;;;;;;;;4972661;28;20222;-76
2023/09/29 07:11:55;;;;;;;6.43;4.00;;;;;;;;;;4989211;28;20263;-77
2023/09/29 07:14:21;;;;;;;8.73;3.93;;;;;;;;;;5000683;28;20209;-77
2023/09/29 07:16:49;;;;;;;5.30;4.10;;;;;;;;;;4975346;28;20216;-77
2023/09/29 07:19:16;;;;;;;9.53;4.27;;;;;;;;;;4975546;28;20189;-77
2023/09/29 07:21:42;;;;;;;5.37;3.63;;;;;;;;;;4990999;28;20277;-77
2023/09/29 07:24:08;;;;;;;6.43;3.90;;;;;;;;;;5008412;28;20190;-77
2023/09/29 07:26:35;;;;;;;4.63;3.47;;;;;;;;;;4999482;28;20185;-77
2023/09/29 07:29:03;;;;;;;6.13;4.27;;;;;;;;;;4984369;28;20236;-77
2023/09/29 07:31:45;;;;;;;5.27;4.00;;;;;;;;;;4986271;28;20217;-77
2023/09/29 07:34:11;;;;;;;5.83;3.90;;;;;;;;;;4998151;28;20189;-77
2023/09/29 07:36:39;;;;;;;7.00;4.10;;;;;;;;;;4970147;28;20177;-77
2023/09/29 07:39:05;;;;;;;5.93;3.90;;;;;;;;;;4995717;28;20190;-76
2023/09/29 07:41:31;;;;;;;7.83;4.00;;;;;;;;;;5015750;28;20192;-76
2023/09/29 07:43:57;;;;;;;5.23;3.53;;;;;;;;;;5008687;28;20186;-77
2023/09/29 07:46:23;;;;;;;7.53;4.17;;;;;;;;;;4979099;28;20186;-77
2023/09/29 07:48:49;;;;;;;6.47;3.87;;;;;;;;;;4971613;28;20185;-77
2023/09/29 07:51:15;;;;;;;5.63;3.57;;;;;;;;;;4981644;28;20225;-76
2023/09/29 07:53:41;;;;;;;7.20;4.20;;;;;;;;;;4998974;28;20192;-77
2023/09/29 07:56:07;;;;;;;6.33;4.07;;;;;;;;;;4999631;28;20193;-77
2023/09/29 07:58:33;;;;;;;7.27;4.17;;;;;;;;;;4999197;28;20186;-77
2023/09/29 08:00:59;;;;;;;7.90;4.27;;;;;;;;;;4983424;28;20188;-77
2023/09/29 08:03:25;;;;;;;10.30;4.63;;;;;;;;;;4985035;28;20197;-76
2023/09/29 08:05:53;;;;;;;7.33;4.00;;;;;;;;;;4999759;28;20185;-80
2023/09/29 08:08:19;;;;;;;9.63;4.03;;;;;;;;;;4999467;28;20185;-80
2023/09/29 08:10:45;;;;;;;7.63;4.23;;;;;;;;;;5016016;28;20305;-79
2023/09/29 08:13:12;;;;;;;6.50;3.87;;;;;;;;;;5016440;28;20355;-79
2023/09/29 08:15:38;;;;;;;7.43;4.00;;;;;;;;;;4983422;28;20196;-80
2023/09/29 08:18:04;;;;;;;7.13;4.20;;;;;;;;;;4982810;28;20189;-80
2023/09/29 08:20:30;;;;;;;7.87;4.77;;;;;;;;;;4982540;28;20201;-79
2023/09/29 08:22:56;;;;;;;7.17;4.00;;;;;;;;;;5001200;28;20204;-80
2023/09/29 08:25:22;;;;;;;5.87;4.03;;;;;;;;;;4998788;28;20259;-79
2023/09/29 08:27:48;;;;;;;7.20;4.03;;;;;;;;;;4997769;28;20224;-80
2023/09/29 08:30:14;;;;;;;6.43;3.73;;;;;;;;;;4985049;28;20213;-80
2023/09/29 08:32:43;;;;;;;7.87;3.67;;;;;;;;;;4999912;28;20185;-80
2023/09/29 08:35:13;;;;;;;9.67;3.80;;;;;;;;;;4992050;28;20224;-80
2023/09/29 08:37:39;;;;;;;7.07;3.43;;;;;;;;;;5012340;28;20211;-80
2023/09/29 08:40:09;;;;;;;6.13;3.40;;;;;;;;;;5001700;28;20197;-79
2023/09/29 08:42:40;;;;;;;6.53;3.63;;;;;;;;;;4998665;28;20193;-80
2023/09/29 08:45:10;;;;;;;6.33;3.50;;;;;;;;;;5006479;28;20188;-80
2023/09/29 08:47:37;;;;;;;5.37;3.37;;;;;;;;;;5018496;28;20219;-79
2023/09/29 08:50:04;;;;;;;5.40;3.40;;;;;;;;;;5018182;28;20208;-80
2023/09/29 08:52:32;;;;;;;3.93;3.17;;;;;;;;;;5025061;28;20393;-80
2023/09/29 08:54:59;;;;;;;3.43;2.93;;;;;;;;;;4992976;28;20324;-77
2023/09/29 08:57:25;;;;;;;5.47;3.37;;;;;;;;;;4982341;28;20181;-77
2023/09/29 08:59:53;;;;;;;6.80;3.27;;;;;;;;;;4982255;28;20193;-80
2023/09/29 09:02:19;;;;;;;5.87;3.53;;;;;;;;;;4998211;28;20197;-80
2023/09/29 09:04:45;;;;;;;5.63;3.20;;;;;;;;;;4982372;28;20189;-82
2023/09/29 09:07:12;;;;;;;5.13;3.30;;;;;;;;;;4998556;28;20208;-81
2023/09/29 09:09:38;;;;;;;6.07;3.23;;;;;;;;;;4998472;28;20245;-81
2023/09/29 09:12:04;;;;;;;5.73;3.23;;;;;;;;;;4998244;28;20236;-81
2023/09/29 09:14:44;;;;;;;6.50;3.30;;;;;;;;;;4982496;28;20181;-82
2023/09/29 09:17:11;;;;;;;8.20;2.90;;;;;;;;;;4998316;28;20185;-82
2023/09/29 09:19:43;;;;;;;6.00;3.10;;;;;;;;;;4998247;28;20239;-82
2023/09/29 09:22:14;;;;;;;6.30;3.23;;;;;;;;;;4998045;28;20200;-81
2023/09/29 09:24:40;;;;;;;7.07;3.20;;;;;;;;;;4982331;28;20276;-82
2023/09/29 09:27:07;;;;;;;3.63;2.67;;;;;;;;;;4981736;28;20200;-81
2023/09/29 09:29:40;;;;;;;4.27;2.77;;;;;;;;;;4987874;28;20213;-82
2023/09/29 09:32:06;;;;;;;4.60;2.97;;;;;;;;;;4979073;28;20186;-81
2023/09/29 09:34:33;;;;;;;6.10;3.05;;;;;;;;;;4978428;28;20262;-81
2023/09/29 09:36:59;;;;;;;5.32;3.30;;;;;;;;;;4977250;28;20413;-81
2023/09/29 09:39:25;;;;;;;6.30;3.55;;;;;;;;;;4977106;28;20412;-81
2023/09/29 09:41:53;;;;;;;6.70;3.30;;;;;;;;;;4994787;28;20193;-81
2023/09/29 09:44:20;;;;;;;8.75;3.22;;;;;;;;;;4996658;28;20182;-81
2023/09/29 09:46:48;;;;;;;6.03;3.25;;;;;;;;;;4980696;28;20185;-81
2023/09/29 09:49:15;;;;;;;6.93;3.53;;;;;;;;;;5010151;28;20428;-78
2023/09/29 09:51:47;;;;;;;6.10;3.50;;;;;;;;;;4996915;28;20433;-78
2023/09/29 09:54:14;;;;;;;7.22;3.50;;;;;;;;;;4997685;28;20181;-78
2023/09/29 09:56:40;;;;;;;5.05;3.25;;;;;;;;;;4995146;28;20182;-78
2023/09/29 09:59:07;;;;;;;6.30;3.30;;;;;;;;;;4997966;28;20178;-78
2023/09/29 10:01:34;;;;;;;6.38;3.50;;;;;;;;;;4997753;28;20185;-78
2023/09/29 10:04:04;;;;;;;5.20;3.35;;;;;;;;;;4997089;28;20495;-78
2023/09/29 10:06:31;;;;;;;6.53;3.60;;;;;;;;;;4985663;28;20490;-81
2023/09/29 10:09:00;;;;;;;6.70;3.63;;;;;;;;;;4987797;28;20427;-81
2023/09/29 10:11:27;;;;;;;5.63;3.50;;;;;;;;;;4994087;28;20434;-81
2023/09/29 10:14:02;;;;;;;6.75;3.80;;;;;;;;;;5006583;28;20529;-81
2023/09/29 10:16:28;;;;;;;7.35;3.80;;;;;;;;;;4993241;28;20454;-81
2023/09/29 10:18:58;;;;;;;7.27;3.60;;;;;;;;;;4984912;28;20417;-81
2023/09/29 10:21:25;;;;;;;6.68;3.70;;;;;;;;;;5003843;28;20411;-81
2023/09/29 10:23:52;;;;;;;6.18;3.58;;;;;;;;;;4996640;28;20415;-81
2023/09/29 10:26:20;;;;;;;5.40;3.60;;;;;;;;;;5014380;28;20465;-81
2023/09/29 10:28:47;;;;;;;6.00;3.57;;;;;;;;;;4997818;28;20415;-81
2023/09/29 10:31:14;;;;;;;8.38;3.50;;;;;;;;;;4996874;28;20505;-81
2023/09/29 10:33:50;;;;;;;6.05;3.70;;;;;;;;;;4997418;28;20419;-78
2023/09/29 10:36:18;;;;;;;7.28;3.95;;;;;;;;;;4997294;28;20407;-77
2023/09/29 10:38:44;;;;;;;6.53;3.63;;;;;;;;;;4996741;28;20447;-82
2023/09/29 10:41:10;;;;;;;6.97;3.40;;;;;;;;;;4996530;28;20268;-82
2023/09/29 10:43:36;;;;;;;5.47;3.33;;;;;;;;;;4981789;28;20189;-82
2023/09/29 10:46:09;;;;;;;7.55;3.50;;;;;;;;;;4992452;28;20185;-82
2023/09/29 10:48:48;;;;;;;6.65;3.30;;;;;;;;;;4997427;28;20500;-82
2023/09/29 10:51:24;;;;;;;5.72;3.20;;;;;;;;;;4995172;28;20458;-82
2023/09/29 10:53:50;;;;;;;5.80;3.08;;;;;;;;;;5011101;28;20445;-82
2023/09/29 10:56:24;;;;;;;5.78;2.97;;;;;;;;;;5000235;28;20261;-80
2023/09/29 10:58:52;;;;;;;6.78;3.20;;;;;;;;;;5000261;28;20181;-80
2023/09/29 11:01:28;;;;;;;5.23;3.37;;;;;;;;;;4983517;28;20431;-79
2023/09/29 11:03:55;;;;;;;6.18;3.10;;;;;;;;;;4984956;28;20415;-80
2023/09/29 11:06:21;;;;;;;5.03;3.10;;;;;;;;;;5018492;28;20418;-80
2023/09/29 11:08:54;;;;;;;5.57;3.33;;;;;;;;;;4997338;28;20436;-80
2023/09/29 11:11:20;;;;;;;4.18;3.00;;;;;;;;;;5011102;28;20209;-78
2023/09/29 11:13:57;;;;;;;3.88;2.90;;;;;;;;;;4978136;28;20190;-78
2023/09/29 11:16:26;;;;;;;6.25;3.15;;;;;;;;;;4959103;29;20190;-78
2023/09/29 11:18:56;;;;;;;3.85;2.90;;;;;;;;;;4964559;28;20186;-78
2023/09/29 11:21:32;;;;;;;4.95;3.35;;;;;;;;;;4966509;28;20183;-78
2023/09/29 11:24:03;;;;;;;6.05;3.60;;;;;;;;;;4977080;28;20412;-78
2023/09/29 11:26:29;;;;;;;6.22;3.15;;;;;;;;;;4977591;28;20445;-81
2023/09/29 11:28:55;;;;;;;4.53;3.47;;;;;;;;;;4960887;28;20218;-78
2023/09/29 11:31:21;;;;;;;6.17;3.53;;;;;;;;;;4948517;28;20286;-78
2023/09/29 11:33:47;;;;;;;5.18;3.35;;;;;;;;;;4958960;29;20329;-78
2023/09/29 11:36:18;;;;;;;7.20;3.53;;;;;;;;;;4962529;28;20421;-78
2023/09/29 11:38:44;;;;;;;5.07;3.65;;;;;;;;;;4978049;28;20258;-79
2023/09/29 11:41:11;;;;;;;6.68;3.15;;;;;;;;;;4981724;28;20182;-78
2023/09/29 11:43:39;;;;;;;5.88;2.95;;;;;;;;;;4961312;28;20198;-78
2023/09/29 11:46:05;;;;;;;5.25;3.40;;;;;;;;;;4977313;28;20178;-82
2023/09/29 11:48:31;;;;;;;6.45;3.53;;;;;;;;;;4976464;28;20194;-81
2023/09/29 11:50:57;;;;;;;6.25;3.38;;;;;;;;;;4961521;28;20245;-81
2023/09/29 11:53:23;;;;;;;5.93;3.80;;;;;;;;;;4975672;28;20196;-81
2023/09/29 11:55:49;;;;;;;5.22;3.90;;;;;;;;;;4977391;28;20183;-81
2023/09/29 11:58:16;;;;;;;6.13;3.92;;;;;;;;;;4976838;28;20271;-81
2023/09/29 12:00:42;;;;;;;5.50;3.53;;;;;;;;;;4975874;28;20195;-81
2023/09/29 12:03:08;;;;;;;5.03;3.55;;;;;;;;;;4978504;28;20186;-83
2023/09/29 12:05:34;;;;;;;7.13;3.53;;;;;;;;;;4976665;28;20202;-81
2023/09/29 12:08:02;;;;;;;5.67;3.53;;;;;;;;;;4976774;28;20187;-82
2023/09/29 12:10:28;;;;;;;9.57;3.60;;;;;;;;;;4977315;28;20210;-80
2023/09/29 12:12:54;;;;;;;5.30;3.42;;;;;;;;;;4972947;28;20225;-82
2023/09/29 12:15:21;;;;;;;4.65;3.58;;;;;;;;;;4997281;28;20175;-80
2023/09/29 12:17:47;;;;;;;4.77;3.77;;;;;;;;;;4997491;28;20233;-78
2023/09/29 12:20:16;;;;;;;5.45;4.03;;;;;;;;;;4980177;28;20197;-78
2023/09/29 12:22:44;;;;;;;7.65;4.25;;;;;;;;;;4995828;28;20264;-77
2023/09/29 12:25:14;;;;;;;5.55;3.95;;;;;;;;;;4979712;28;20178;-77
2023/09/29 12:27:42;;;;;;;6.20;4.13;;;;;;;;;;5046341;22;20228;-77
2023/09/29 12:30:08;;;;;;;5.38;3.90;;;;;;;;;;5032784;28;20216;-78
2023/09/29 12:32:36;;;;;;;9.30;4.43;;;;;;;;;;5035851;28;20234;-78
2023/09/29 12:35:03;;;;;;;4.53;4.07;;;;;;;;;;5037000;28;20237;-76
2023/09/29 12:37:29;;;;;;;6.90;4.00;;;;;;;;;;5021640;28;20275;-78
2023/09/29 12:39:55;;;;;;;6.00;4.50;;;;;;;;;;5054688;28;20187;-76
2023/09/29 12:42:21;;;;;;;5.67;4.40;;;;;;;;;;5038420;28;20184;-77
2023/09/29 12:44:47;;;;;;;5.05;3.40;;;;;;;;;;5038012;28;20191;-80
2023/09/29 12:47:16;;;;;;;3.33;2.83;;;;;;;;;;5050805;28;20255;-80
2023/09/29 12:49:42;;;;;;;3.55;2.30;;;;;;;;;;5021303;28;20223;-80
2023/09/29 12:52:08;;;;;;;6.22;2.50;;;;;;;;;;5037370;28;20188;-80
2023/09/29 12:54:38;;;;;;;3.03;2.17;;;;;;;;;;5055757;28;20172;-81
2023/09/29 12:57:04;;;;;;;3.15;2.10;;;;;;;;;;5038288;28;20204;-79
2023/09/29 12:59:35;;;;;;;3.95;2.38;;;;;;;;;;5049578;28;20176;-81
2023/09/29 13:02:01;;;;;;;5.45;2.60;;;;;;;;;;5017563;28;20199;-80
2023/09/29 13:04:29;;;;;;;5.20;2.20;;;;;;;;;;5034000;28;20195;-81
2023/09/29 13:06:55;;;;;;;2.93;1.67;;;;;;;;;;5020817;28;20195;-81
2023/09/29 13:09:21;;;;;;;2.37;1.67;;;;;;;;;;5036262;28;20176;-79
2023/09/29 13:11:50;;;;;;;2.58;1.40;;;;;;;;;;5054897;28;20207;-79
2023/09/29 13:14:17;;;;;;;2.22;1.50;;;;;;;;;;5036834;28;20175;-79
2023/09/29 13:16:43;;;;;;;1.67;1.40;;;;;;;;;;5022408;28;20299;-78
2023/09/29 13:19:09;;;;;;;3.87;1.47;;;;;;;;;;5034935;28;20180;-77
2023/09/29 13:21:35;;;;;;;4.07;1.50;;;;;;;;;;5017006;28;20180;-77
2023/09/29 13:24:01;;;;;;;3.67;1.90;;;;;;;;;;5016566;28;20185;-76
2023/09/29 13:26:27;;;;;;;5.63;1.47;;;;;;;;;;5033264;28;20215;-80
2023/09/29 13:28:53;;;;;;;3.87;1.67;;;;;;;;;;5020951;28;20223;-80
2023/09/29 13:31:19;;;;;;;3.97;1.77;;;;;;;;;;5021211;28;20235;-80
2023/09/29 13:33:46;;;;;;;2.97;1.57;;;;;;;;;;5020897;28;20211;-80
2023/09/29 13:36:12;;;;;;;4.73;1.73;;;;;;;;;;5037184;28;20179;-80
2023/09/29 13:38:38;;;;;;;3.30;1.50;;;;;;;;;;5037315;28;20184;-80
2023/09/29 13:41:04;;;;;;;4.67;1.60;;;;;;;;;;5021009;28;20210;-77
2023/09/29 13:43:30;;;;;;;3.53;1.63;;;;;;;;;;5037499;28;20179;-76
2023/09/29 13:45:56;;;;;;;4.63;1.60;;;;;;;;;;5020518;28;20252;-76
2023/09/29 13:48:22;;;;;;;2.93;1.53;;;;;;;;;;5020870;28;20188;-76
2023/09/29 13:50:52;;;;;;;3.17;1.50;;;;;;;;;;5036915;28;20215;-76
2023/09/29 13:53:18;;;;;;;4.80;1.43;;;;;;;;;;5020638;28;20188;-76
2023/09/29 13:55:44;;;;;;;4.00;1.40;;;;;;;;;;5036898;28;20184;-77
2023/09/29 13:58:10;;;;;;;3.40;1.43;;;;;;;;;;5037056;28;20176;-79
2023/09/29 14:00:36;;;;;;;7.70;2.13;;;;;;;;;;5037319;28;20187;-78
2023/09/29 14:03:03;;;;;;;4.90;1.77;;;;;;;;;;5020349;28;20187;-78
2023/09/29 14:05:29;;;;;;;4.50;1.80;;;;;;;;;;5016439;28;20273;-79
2023/09/29 14:07:56;;;;;;;4.33;1.60;;;;;;;;;;5016923;28;20228;-78
2023/09/29 14:10:22;;;;;;;5.13;1.70;;;;;;;;;;5033438;28;20208;-79
2023/09/29 14:12:48;;;;;;;5.97;2.13;;;;;;;;;;5016795;28;20234;-78
2023/09/29 14:15:14;;;;;;;6.27;2.20;;;;;;;;;;5017990;28;20192;-80
2023/09/29 14:17:40;;;;;;;6.93;2.00;;;;;;;;;;5037072;28;20180;-80
2023/09/29 14:20:08;;;;;;;5.43;2.13;;;;;;;;;;5020058;28;20192;-80
2023/09/29 14:22:34;;;;;;;7.53;2.20;;;;;;;;;;5052197;28;20230;-79
2023/09/29 14:25:00;;;;;;;9.53;2.30;;;;;;;;;;5035969;28;20279;-80
2023/09/29 14:27:27;;;;;;;9.30;2.67;;;;;;;;;;5053787;28;20228;-80
2023/09/29 14:29:53;;;;;;;6.13;2.37;;;;;;;;;;5036152;28;20249;-80
2023/09/29 14:32:19;;;;;;;7.93;2.00;;;;;;;;;;5036070;28;20176;-80
2023/09/29 14:34:45;;;;;;;7.50;2.40;;;;;;;;;;5036435;28;20180;-80
2023/09/29 14:37:11;;;;;;;8.83;2.50;;;;;;;;;;5052213;28;20176;-80